Hauptseite
Satellitenwetter 15-Tage PrognosenKlimaSeewetter Wirbelstürme Blitz FlughäfenFAQ Newsletter Über uns
Wetter : Europa Afrika Nordamerika Südamerika Asien Australien-Ozeanien Andere
Sprachen Kontakt

Newquay Cornwall, England

Breite: 50-26N, Länge: 005-00W, Höhe: 119 m


METAR: EGHQ 251120Z 24013KT 9999 BKN042 13/10 Q1020
TAF: EGHQ 251059Z 2512/2521 24014KT 9999 BKN025 PROB30 TEMPO 2512/2521 8000 -SHRA BKN014

Zeit: 12:53 (11:53 UTC)

Beobachtung

Neuester Wetterbericht von vor 33 Minuten, um 11:20 UTC
Wind 13 kt aus West/Südwest
Temperatur 13°C
Luftfeuchtigkeit 82%
Luftdruck 1020 hPa
Sichtweite 10 km oder mehr
Durchbrochene Bewölkung in der Höhe von 4200 ft

Maßeinheiten ändern

Prognose

Neuester Wetterbericht von vor 54 Minuten, um 10:59 UTC
Gültige Prognose vom 25 um 12 UTC bis 25 um 21 UTC
Wind 14 kt aus West/Südwest
Sichtweite 10 km oder mehr
Durchbrochene Bewölkung in der Höhe von 2500 ft
Wahrscheinlichkeit 30% :
Zeitweise
vom 25 um 12 UTC bis 25 um 21 UTC
Sichtweite: 8000 m
Durchbrochene Bewölkung in der Höhe von 1400 ft
schwach Regenschauer
Die Angaben auf diesen Webseiten unterliegen einer Erklärung über den Haftungsausschluss
Wetter : Europa Afrika Nordamerika Südamerika Asien Australien-Ozeanien Andere
Satellitenwetter 15-Tage PrognosenKlimaSeewetter Wirbelstürme Blitz FlughäfenFAQ Sprachen Kontakt Newsletter Über uns